sensor_id;sensor_type;location;lat;lon;timestamp;temperature;humidity
77985;DHT22;67177;47.240;-1.546;2023-06-26T00:00:06;19.80;69.90
77985;DHT22;67177;47.240;-1.546;2023-06-26T00:02:33;19.80;69.90
77985;DHT22;67177;47.240;-1.546;2023-06-26T00:04:59;19.70;69.80
77985;DHT22;67177;47.240;-1.546;2023-06-26T00:07:28;19.70;69.80
77985;DHT22;67177;47.240;-1.546;2023-06-26T00:09:54;19.70;69.90
77985;DHT22;67177;47.240;-1.546;2023-06-26T00:12:19;19.70;69.80
77985;DHT22;67177;47.240;-1.546;2023-06-26T00:14:45;19.60;69.70
77985;DHT22;67177;47.240;-1.546;2023-06-26T00:17:11;19.60;69.70
77985;DHT22;67177;47.240;-1.546;2023-06-26T00:19:37;19.50;69.70
77985;DHT22;67177;47.240;-1.546;2023-06-26T00:22:03;19.50;69.80
77985;DHT22;67177;47.240;-1.546;2023-06-26T00:24:28;19.50;69.70
77985;DHT22;67177;47.240;-1.546;2023-06-26T00:26:54;19.50;69.70
77985;DHT22;67177;47.240;-1.546;2023-06-26T00:29:19;19.50;69.70
77985;DHT22;67177;47.240;-1.546;2023-06-26T00:31:45;19.40;69.60
77985;DHT22;67177;47.240;-1.546;2023-06-26T00:34:11;19.40;69.50
77985;DHT22;67177;47.240;-1.546;2023-06-26T00:36:37;19.40;69.50
77985;DHT22;67177;47.240;-1.546;2023-06-26T00:39:03;19.40;69.60
77985;DHT22;67177;47.240;-1.546;2023-06-26T00:41:29;19.40;69.60
77985;DHT22;67177;47.240;-1.546;2023-06-26T00:43:55;19.40;69.50
77985;DHT22;67177;47.240;-1.546;2023-06-26T00:46:20;19.40;69.40
77985;DHT22;67177;47.240;-1.546;2023-06-26T00:48:47;19.40;69.30
77985;DHT22;67177;47.240;-1.546;2023-06-26T00:51:13;19.40;69.10
77985;DHT22;67177;47.240;-1.546;2023-06-26T00:53:40;19.30;69.10
77985;DHT22;67177;47.240;-1.546;2023-06-26T00:56:05;19.30;68.90
77985;DHT22;67177;47.240;-1.546;2023-06-26T00:58:32;19.30;68.90
77985;DHT22;67177;47.240;-1.546;2023-06-26T01:00:58;19.20;68.80
77985;DHT22;67177;47.240;-1.546;2023-06-26T01:03:25;19.20;68.90
77985;DHT22;67177;47.240;-1.546;2023-06-26T01:05:52;19.20;68.80
77985;DHT22;67177;47.240;-1.546;2023-06-26T01:08:20;19.20;68.80
77985;DHT22;67177;47.240;-1.546;2023-06-26T01:10:47;19.10;68.80
77985;DHT22;67177;47.240;-1.546;2023-06-26T01:13:16;19.10;68.80
77985;DHT22;67177;47.240;-1.546;2023-06-26T01:15:41;19.10;68.80
77985;DHT22;67177;47.240;-1.546;2023-06-26T01:18:07;19.10;68.70
77985;DHT22;67177;47.240;-1.546;2023-06-26T01:20:38;19.10;68.70
77985;DHT22;67177;47.240;-1.546;2023-06-26T01:26:42;19.00;68.60
77985;DHT22;67177;47.240;-1.546;2023-06-26T01:29:04;19.00;68.60
77985;DHT22;67177;47.240;-1.546;2023-06-26T01:31:31;19.00;68.60
77985;DHT22;67177;47.240;-1.546;2023-06-26T01:33:59;18.90;68.60
77985;DHT22;67177;47.240;-1.546;2023-06-26T01:36:26;18.90;68.70
77985;DHT22;67177;47.240;-1.546;2023-06-26T01:38:52;18.90;68.70
77985;DHT22;67177;47.240;-1.546;2023-06-26T01:41:18;18.90;68.70
77985;DHT22;67177;47.240;-1.546;2023-06-26T01:55:05;18.80;68.60
77985;DHT22;67177;47.240;-1.546;2023-06-26T01:57:34;18.80;68.80
77985;DHT22;67177;47.240;-1.546;2023-06-26T02:00:02;18.80;68.80
77985;DHT22;67177;47.240;-1.546;2023-06-26T02:02:29;18.80;68.70
77985;DHT22;67177;47.240;-1.546;2023-06-26T02:04:55;18.80;68.70
77985;DHT22;67177;47.240;-1.546;2023-06-26T02:07:20;18.80;68.70
77985;DHT22;67177;47.240;-1.546;2023-06-26T02:09:46;18.80;68.60
77985;DHT22;67177;47.240;-1.546;2023-06-26T02:12:12;18.80;68.50
77985;DHT22;67177;47.240;-1.546;2023-06-26T02:14:37;18.80;68.40
77985;DHT22;67177;47.240;-1.546;2023-06-26T02:17:04;18.80;68.40
77985;DHT22;67177;47.240;-1.546;2023-06-26T02:19:29;18.80;68.40
77985;DHT22;67177;47.240;-1.546;2023-06-26T02:21:55;18.80;68.40
77985;DHT22;67177;47.240;-1.546;2023-06-26T02:24:20;18.80;68.30
77985;DHT22;67177;47.240;-1.546;2023-06-26T02:26:46;18.80;68.20
77985;DHT22;67177;47.240;-1.546;2023-06-26T02:29:12;18.70;68.30
77985;DHT22;67177;47.240;-1.546;2023-06-26T02:31:38;18.70;68.30
77985;DHT22;67177;47.240;-1.546;2023-06-26T02:34:04;18.70;68.20
77985;DHT22;67177;47.240;-1.546;2023-06-26T02:36:30;18.70;68.20
77985;DHT22;67177;47.240;-1.546;2023-06-26T02:38:55;18.70;68.10
77985;DHT22;67177;47.240;-1.546;2023-06-26T02:41:21;18.70;68.10
77985;DHT22;67177;47.240;-1.546;2023-06-26T02:43:47;18.60;68.10
77985;DHT22;67177;47.240;-1.546;2023-06-26T02:46:12;18.60;68.10
77985;DHT22;67177;47.240;-1.546;2023-06-26T02:48:38;18.50;68.10
77985;DHT22;67177;47.240;-1.546;2023-06-26T02:51:04;18.50;68.20
77985;DHT22;67177;47.240;-1.546;2023-06-26T02:53:30;18.50;68.20
77985;DHT22;67177;47.240;-1.546;2023-06-26T02:55:56;18.40;68.30
77985;DHT22;67177;47.240;-1.546;2023-06-26T02:58:22;18.40;68.40
77985;DHT22;67177;47.240;-1.546;2023-06-26T03:00:47;18.40;68.40
77985;DHT22;67177;47.240;-1.546;2023-06-26T03:03:13;18.30;68.50
77985;DHT22;67177;47.240;-1.546;2023-06-26T03:05:39;18.30;68.50
77985;DHT22;67177;47.240;-1.546;2023-06-26T03:08:05;18.30;68.50
77985;DHT22;67177;47.240;-1.546;2023-06-26T03:10:31;18.30;68.60
77985;DHT22;67177;47.240;-1.546;2023-06-26T03:12:56;18.20;68.60
77985;DHT22;67177;47.240;-1.546;2023-06-26T03:15:22;18.20;68.70
77985;DHT22;67177;47.240;-1.546;2023-06-26T03:17:48;18.20;68.70
77985;DHT22;67177;47.240;-1.546;2023-06-26T03:20:13;18.10;68.80
77985;DHT22;67177;47.240;-1.546;2023-06-26T03:22:40;18.10;68.80
77985;DHT22;67177;47.240;-1.546;2023-06-26T03:25:06;18.10;68.80
77985;DHT22;67177;47.240;-1.546;2023-06-26T03:27:32;18.10;69.00
77985;DHT22;67177;47.240;-1.546;2023-06-26T03:29:57;18.10;68.90
77985;DHT22;67177;47.240;-1.546;2023-06-26T03:32:23;18.10;68.90
77985;DHT22;67177;47.240;-1.546;2023-06-26T03:34:49;18.10;69.00
77985;DHT22;67177;47.240;-1.546;2023-06-26T03:37:14;18.00;69.00
77985;DHT22;67177;47.240;-1.546;2023-06-26T03:39:40;18.00;69.10
77985;DHT22;67177;47.240;-1.546;2023-06-26T03:42:07;17.90;69.10
77985;DHT22;67177;47.240;-1.546;2023-06-26T03:44:33;17.90;69.20
77985;DHT22;67177;47.240;-1.546;2023-06-26T03:46:58;17.90;69.20
77985;DHT22;67177;47.240;-1.546;2023-06-26T03:49:24;17.90;69.10
77985;DHT22;67177;47.240;-1.546;2023-06-26T03:51:49;17.90;69.30
77985;DHT22;67177;47.240;-1.546;2023-06-26T03:54:15;17.90;69.30
77985;DHT22;67177;47.240;-1.546;2023-06-26T03:56:41;17.90;69.30
77985;DHT22;67177;47.240;-1.546;2023-06-26T03:59:06;17.90;69.30
77985;DHT22;67177;47.240;-1.546;2023-06-26T04:01:32;17.80;69.40
77985;DHT22;67177;47.240;-1.546;2023-06-26T04:03:57;17.80;69.40
77985;DHT22;67177;47.240;-1.546;2023-06-26T04:06:23;17.80;69.40
77985;DHT22;67177;47.240;-1.546;2023-06-26T04:08:49;17.80;69.40
77985;DHT22;67177;47.240;-1.546;2023-06-26T04:11:14;17.70;69.40
77985;DHT22;67177;47.240;-1.546;2023-06-26T04:13:40;17.70;69.40
77985;DHT22;67177;47.240;-1.546;2023-06-26T04:16:05;17.70;69.60
77985;DHT22;67177;47.240;-1.546;2023-06-26T04:18:32;17.70;69.50
77985;DHT22;67177;47.240;-1.546;2023-06-26T04:21:07;17.70;69.50
77985;DHT22;67177;47.240;-1.546;2023-06-26T04:23:33;17.70;69.60
77985;DHT22;67177;47.240;-1.546;2023-06-26T04:25:59;17.60;69.60
77985;DHT22;67177;47.240;-1.546;2023-06-26T04:28:25;17.60;69.80
77985;DHT22;67177;47.240;-1.546;2023-06-26T04:30:51;17.60;69.80
77985;DHT22;67177;47.240;-1.546;2023-06-26T04:33:16;17.60;69.90
77985;DHT22;67177;47.240;-1.546;2023-06-26T04:35:42;17.60;69.90
77985;DHT22;67177;47.240;-1.546;2023-06-26T04:38:10;17.60;69.90
77985;DHT22;67177;47.240;-1.546;2023-06-26T04:40:36;17.60;69.70
77985;DHT22;67177;47.240;-1.546;2023-06-26T04:43:02;17.60;69.70
77985;DHT22;67177;47.240;-1.546;2023-06-26T04:45:28;17.60;69.80
77985;DHT22;67177;47.240;-1.546;2023-06-26T04:47:53;17.60;69.80
77985;DHT22;67177;47.240;-1.546;2023-06-26T04:50:19;17.60;69.80
77985;DHT22;67177;47.240;-1.546;2023-06-26T04:52:45;17.70;69.70
77985;DHT22;67177;47.240;-1.546;2023-06-26T04:55:10;17.70;69.60
77985;DHT22;67177;47.240;-1.546;2023-06-26T04:57:36;17.70;69.60
77985;DHT22;67177;47.240;-1.546;2023-06-26T05:00:03;17.70;69.50
77985;DHT22;67177;47.240;-1.546;2023-06-26T05:02:35;17.80;69.50
77985;DHT22;67177;47.240;-1.546;2023-06-26T05:05:00;17.80;69.50
77985;DHT22;67177;47.240;-1.546;2023-06-26T05:07:26;17.80;69.50
77985;DHT22;67177;47.240;-1.546;2023-06-26T05:09:52;17.80;69.40
77985;DHT22;67177;47.240;-1.546;2023-06-26T05:12:17;17.90;69.40
77985;DHT22;67177;47.240;-1.546;2023-06-26T05:14:43;17.90;69.30
77985;DHT22;67177;47.240;-1.546;2023-06-26T05:17:09;17.90;69.30
77985;DHT22;67177;47.240;-1.546;2023-06-26T05:19:34;18.00;69.20
77985;DHT22;67177;47.240;-1.546;2023-06-26T05:22:01;18.00;69.20
77985;DHT22;67177;47.240;-1.546;2023-06-26T05:24:30;18.00;69.10
77985;DHT22;67177;47.240;-1.546;2023-06-26T05:26:56;18.00;69.30
77985;DHT22;67177;47.240;-1.546;2023-06-26T05:29:22;18.00;69.20
77985;DHT22;67177;47.240;-1.546;2023-06-26T05:31:49;18.10;69.10
77985;DHT22;67177;47.240;-1.546;2023-06-26T05:34:17;18.10;69.10
77985;DHT22;67177;47.240;-1.546;2023-06-26T05:36:44;18.10;69.00
77985;DHT22;67177;47.240;-1.546;2023-06-26T05:39:10;18.20;69.00
77985;DHT22;67177;47.240;-1.546;2023-06-26T05:41:36;18.20;68.90
77985;DHT22;67177;47.240;-1.546;2023-06-26T05:44:02;18.30;68.80
77985;DHT22;67177;47.240;-1.546;2023-06-26T05:46:27;18.30;68.70
77985;DHT22;67177;47.240;-1.546;2023-06-26T05:48:53;18.40;68.60
77985;DHT22;67177;47.240;-1.546;2023-06-26T05:51:19;18.40;68.70
77985;DHT22;67177;47.240;-1.546;2023-06-26T05:53:45;18.40;68.80
77985;DHT22;67177;47.240;-1.546;2023-06-26T05:56:11;18.40;68.80
77985;DHT22;67177;47.240;-1.546;2023-06-26T05:58:36;18.50;68.70
77985;DHT22;67177;47.240;-1.546;2023-06-26T06:01:02;18.50;68.70
77985;DHT22;67177;47.240;-1.546;2023-06-26T06:03:28;18.60;68.60
77985;DHT22;67177;47.240;-1.546;2023-06-26T06:05:53;18.60;68.50
77985;DHT22;67177;47.240;-1.546;2023-06-26T06:08:19;18.70;68.30
77985;DHT22;67177;47.240;-1.546;2023-06-26T06:10:45;18.70;68.30
77985;DHT22;67177;47.240;-1.546;2023-06-26T06:13:10;18.80;68.10
77985;DHT22;67177;47.240;-1.546;2023-06-26T06:15:36;18.80;67.80
77985;DHT22;67177;47.240;-1.546;2023-06-26T06:18:01;18.80;67.60
77985;DHT22;67177;47.240;-1.546;2023-06-26T06:20:27;18.90;67.50
77985;DHT22;67177;47.240;-1.546;2023-06-26T06:22:53;18.90;67.40
77985;DHT22;67177;47.240;-1.546;2023-06-26T06:25:18;19.00;67.30
77985;DHT22;67177;47.240;-1.546;2023-06-26T06:27:44;19.00;67.10
77985;DHT22;67177;47.240;-1.546;2023-06-26T06:30:10;19.10;67.10
77985;DHT22;67177;47.240;-1.546;2023-06-26T06:32:36;19.10;67.00
77985;DHT22;67177;47.240;-1.546;2023-06-26T06:35:02;19.10;66.90
77985;DHT22;67177;47.240;-1.546;2023-06-26T06:37:35;19.20;66.70
77985;DHT22;67177;47.240;-1.546;2023-06-26T06:40:01;19.20;66.70
77985;DHT22;67177;47.240;-1.546;2023-06-26T06:42:26;19.30;66.50
77985;DHT22;67177;47.240;-1.546;2023-06-26T06:44:52;19.40;66.30
77985;DHT22;67177;47.240;-1.546;2023-06-26T06:47:18;19.40;66.20
77985;DHT22;67177;47.240;-1.546;2023-06-26T06:49:43;19.50;66.00
77985;DHT22;67177;47.240;-1.546;2023-06-26T06:52:10;19.50;65.80
77985;DHT22;67177;47.240;-1.546;2023-06-26T06:54:54;19.60;65.40
77985;DHT22;67177;47.240;-1.546;2023-06-26T06:57:24;19.60;65.40
77985;DHT22;67177;47.240;-1.546;2023-06-26T06:59:50;19.70;65.20
77985;DHT22;67177;47.240;-1.546;2023-06-26T07:02:19;19.80;65.10
77985;DHT22;67177;47.240;-1.546;2023-06-26T07:04:45;19.80;64.90
77985;DHT22;67177;47.240;-1.546;2023-06-26T07:07:12;19.90;64.70
77985;DHT22;67177;47.240;-1.546;2023-06-26T07:09:39;19.90;64.70
77985;DHT22;67177;47.240;-1.546;2023-06-26T07:12:05;19.90;64.50
77985;DHT22;67177;47.240;-1.546;2023-06-26T07:14:30;20.00;64.30
77985;DHT22;67177;47.240;-1.546;2023-06-26T07:16:56;20.00;64.00
77985;DHT22;67177;47.240;-1.546;2023-06-26T07:19:22;20.10;64.00
77985;DHT22;67177;47.240;-1.546;2023-06-26T07:21:47;20.20;63.90
77985;DHT22;67177;47.240;-1.546;2023-06-26T07:24:13;20.20;63.60
77985;DHT22;67177;47.240;-1.546;2023-06-26T07:26:39;20.30;63.40
77985;DHT22;67177;47.240;-1.546;2023-06-26T07:29:04;20.40;63.20
77985;DHT22;67177;47.240;-1.546;2023-06-26T07:31:30;20.40;62.80
77985;DHT22;67177;47.240;-1.546;2023-06-26T07:33:56;20.50;62.40
77985;DHT22;67177;47.240;-1.546;2023-06-26T07:36:21;20.60;62.30
77985;DHT22;67177;47.240;-1.546;2023-06-26T07:38:48;20.80;62.00
77985;DHT22;67177;47.240;-1.546;2023-06-26T07:41:13;20.80;61.80
77985;DHT22;67177;47.240;-1.546;2023-06-26T07:43:39;20.80;61.30
77985;DHT22;67177;47.240;-1.546;2023-06-26T07:46:05;20.80;61.00
77985;DHT22;67177;47.240;-1.546;2023-06-26T07:48:30;20.80;60.60
77985;DHT22;67177;47.240;-1.546;2023-06-26T07:50:56;20.90;60.50
77985;DHT22;67177;47.240;-1.546;2023-06-26T07:53:21;20.90;60.20
77985;DHT22;67177;47.240;-1.546;2023-06-26T07:55:47;21.00;60.30
77985;DHT22;67177;47.240;-1.546;2023-06-26T07:58:13;21.00;60.10
77985;DHT22;67177;47.240;-1.546;2023-06-26T08:00:39;21.10;59.70
77985;DHT22;67177;47.240;-1.546;2023-06-26T08:03:05;21.10;59.60
77985;DHT22;67177;47.240;-1.546;2023-06-26T08:05:31;21.20;59.20
77985;DHT22;67177;47.240;-1.546;2023-06-26T08:07:56;21.30;58.70
77985;DHT22;67177;47.240;-1.546;2023-06-26T08:10:22;21.50;58.50
77985;DHT22;67177;47.240;-1.546;2023-06-26T08:12:48;21.60;58.20
77985;DHT22;67177;47.240;-1.546;2023-06-26T08:15:16;21.60;57.90
77985;DHT22;67177;47.240;-1.546;2023-06-26T08:17:41;21.60;57.10
77985;DHT22;67177;47.240;-1.546;2023-06-26T08:20:07;21.70;56.60
77985;DHT22;67177;47.240;-1.546;2023-06-26T08:22:33;21.70;56.80
77985;DHT22;67177;47.240;-1.546;2023-06-26T08:24:59;21.70;56.40
77985;DHT22;67177;47.240;-1.546;2023-06-26T08:27:25;21.60;55.60
77985;DHT22;67177;47.240;-1.546;2023-06-26T08:29:51;21.60;55.50
77985;DHT22;67177;47.240;-1.546;2023-06-26T08:32:17;21.60;55.50
77985;DHT22;67177;47.240;-1.546;2023-06-26T08:34:42;21.60;55.40
77985;DHT22;67177;47.240;-1.546;2023-06-26T08:37:08;21.60;55.00
77985;DHT22;67177;47.240;-1.546;2023-06-26T08:39:36;21.70;55.10
77985;DHT22;67177;47.240;-1.546;2023-06-26T08:42:02;21.70;55.10
77985;DHT22;67177;47.240;-1.546;2023-06-26T08:44:28;21.70;55.20
77985;DHT22;67177;47.240;-1.546;2023-06-26T08:46:53;21.80;54.70
77985;DHT22;67177;47.240;-1.546;2023-06-26T08:49:37;21.80;54.00
77985;DHT22;67177;47.240;-1.546;2023-06-26T08:52:10;21.80;53.70
77985;DHT22;67177;47.240;-1.546;2023-06-26T08:54:46;21.90;53.60
77985;DHT22;67177;47.240;-1.546;2023-06-26T08:57:18;21.90;53.60
77985;DHT22;67177;47.240;-1.546;2023-06-26T08:59:46;21.90;53.10
77985;DHT22;67177;47.240;-1.546;2023-06-26T09:02:12;21.90;53.20
77985;DHT22;67177;47.240;-1.546;2023-06-26T09:04:38;22.00;53.40
77985;DHT22;67177;47.240;-1.546;2023-06-26T09:07:04;22.00;53.20
77985;DHT22;67177;47.240;-1.546;2023-06-26T09:09:30;22.10;52.30
77985;DHT22;67177;47.240;-1.546;2023-06-26T09:11:56;22.10;52.20
77985;DHT22;67177;47.240;-1.546;2023-06-26T09:14:21;22.20;51.90
77985;DHT22;67177;47.240;-1.546;2023-06-26T09:16:47;22.20;51.80
77985;DHT22;67177;47.240;-1.546;2023-06-26T09:19:13;22.30;51.90
77985;DHT22;67177;47.240;-1.546;2023-06-26T09:21:43;22.30;51.70
77985;DHT22;67177;47.240;-1.546;2023-06-26T09:24:09;22.40;51.70
77985;DHT22;67177;47.240;-1.546;2023-06-26T09:26:40;22.50;51.40
77985;DHT22;67177;47.240;-1.546;2023-06-26T09:29:06;22.60;51.40
77985;DHT22;67177;47.240;-1.546;2023-06-26T09:31:33;22.80;50.80
77985;DHT22;67177;47.240;-1.546;2023-06-26T09:34:00;22.90;50.30
77985;DHT22;67177;47.240;-1.546;2023-06-26T09:36:29;23.10;50.00
77985;DHT22;67177;47.240;-1.546;2023-06-26T09:38:59;23.30;49.40
77985;DHT22;67177;47.240;-1.546;2023-06-26T09:41:25;23.40;48.90
77985;DHT22;67177;47.240;-1.546;2023-06-26T09:43:50;23.40;48.90
77985;DHT22;67177;47.240;-1.546;2023-06-26T09:46:27;23.30;48.70
77985;DHT22;67177;47.240;-1.546;2023-06-26T09:49:05;23.30;48.40
77985;DHT22;67177;47.240;-1.546;2023-06-26T09:51:31;23.30;48.30
77985;DHT22;67177;47.240;-1.546;2023-06-26T09:53:58;23.20;47.50
77985;DHT22;67177;47.240;-1.546;2023-06-26T09:56:24;23.20;48.10
77985;DHT22;67177;47.240;-1.546;2023-06-26T09:58:50;23.20;47.50
77985;DHT22;67177;47.240;-1.546;2023-06-26T10:01:17;23.20;47.40
77985;DHT22;67177;47.240;-1.546;2023-06-26T10:03:43;23.20;47.50
77985;DHT22;67177;47.240;-1.546;2023-06-26T10:06:09;23.20;47.50
77985;DHT22;67177;47.240;-1.546;2023-06-26T10:08:38;23.20;47.20
77985;DHT22;67177;47.240;-1.546;2023-06-26T10:11:05;23.30;46.80
77985;DHT22;67177;47.240;-1.546;2023-06-26T10:13:39;23.30;46.70
77985;DHT22;67177;47.240;-1.546;2023-06-26T10:16:07;23.30;46.90
77985;DHT22;67177;47.240;-1.546;2023-06-26T10:18:36;23.40;46.70
77985;DHT22;67177;47.240;-1.546;2023-06-26T10:21:03;23.40;45.80
77985;DHT22;67177;47.240;-1.546;2023-06-26T10:23:30;23.40;46.10
77985;DHT22;67177;47.240;-1.546;2023-06-26T10:25:58;23.40;46.30
77985;DHT22;67177;47.240;-1.546;2023-06-26T10:28:27;23.50;46.00
77985;DHT22;67177;47.240;-1.546;2023-06-26T10:30:54;23.60;46.10
77985;DHT22;67177;47.240;-1.546;2023-06-26T10:33:21;23.80;46.20
77985;DHT22;67177;47.240;-1.546;2023-06-26T10:35:47;24.10;46.20
77985;DHT22;67177;47.240;-1.546;2023-06-26T10:38:13;24.30;46.10
77985;DHT22;67177;47.240;-1.546;2023-06-26T10:40:46;24.40;45.80
77985;DHT22;67177;47.240;-1.546;2023-06-26T10:43:13;24.40;45.40
77985;DHT22;67177;47.240;-1.546;2023-06-26T10:45:49;24.30;45.20
77985;DHT22;67177;47.240;-1.546;2023-06-26T10:48:19;24.40;45.00
77985;DHT22;67177;47.240;-1.546;2023-06-26T10:50:49;24.50;44.80
77985;DHT22;67177;47.240;-1.546;2023-06-26T10:53:16;24.50;44.70
77985;DHT22;67177;47.240;-1.546;2023-06-26T10:55:59;24.40;44.90
77985;DHT22;67177;47.240;-1.546;2023-06-26T11:01:18;24.40;44.70
77985;DHT22;67177;47.240;-1.546;2023-06-26T11:03:49;24.60;45.10
77985;DHT22;67177;47.240;-1.546;2023-06-26T11:06:21;24.40;45.00
77985;DHT22;67177;47.240;-1.546;2023-06-26T11:08:49;24.00;45.10
77985;DHT22;67177;47.240;-1.546;2023-06-26T11:11:16;23.80;45.40
77985;DHT22;67177;47.240;-1.546;2023-06-26T11:13:42;23.80;45.80
77985;DHT22;67177;47.240;-1.546;2023-06-26T11:16:12;23.70;45.80
77985;DHT22;67177;47.240;-1.546;2023-06-26T11:18:38;23.70;45.90
77985;DHT22;67177;47.240;-1.546;2023-06-26T11:21:08;23.60;45.60
77985;DHT22;67177;47.240;-1.546;2023-06-26T11:23:35;23.60;45.80
77985;DHT22;67177;47.240;-1.546;2023-06-26T11:26:18;23.60;45.90
77985;DHT22;67177;47.240;-1.546;2023-06-26T11:28:55;23.70;45.70
77985;DHT22;67177;47.240;-1.546;2023-06-26T11:33:55;24.00;44.80
77985;DHT22;67177;47.240;-1.546;2023-06-26T11:36:28;24.30;44.70
77985;DHT22;67177;47.240;-1.546;2023-06-26T11:39:01;24.50;44.70
77985;DHT22;67177;47.240;-1.546;2023-06-26T11:41:30;24.60;44.90
77985;DHT22;67177;47.240;-1.546;2023-06-26T11:44:03;24.50;45.00
77985;DHT22;67177;47.240;-1.546;2023-06-26T11:46:29;24.50;44.80
77985;DHT22;67177;47.240;-1.546;2023-06-26T11:48:55;24.70;44.70
77985;DHT22;67177;47.240;-1.546;2023-06-26T11:51:21;24.80;44.40
77985;DHT22;67177;47.240;-1.546;2023-06-26T11:53:47;24.80;44.20
77985;DHT22;67177;47.240;-1.546;2023-06-26T11:56:15;24.70;44.30
77985;DHT22;67177;47.240;-1.546;2023-06-26T11:59:00;24.70;44.30
77985;DHT22;67177;47.240;-1.546;2023-06-26T12:01:46;24.60;44.70
77985;DHT22;67177;47.240;-1.546;2023-06-26T12:04:15;24.60;44.80
77985;DHT22;67177;47.240;-1.546;2023-06-26T12:06:45;24.50;44.50
77985;DHT22;67177;47.240;-1.546;2023-06-26T12:09:12;24.50;44.20
77985;DHT22;67177;47.240;-1.546;2023-06-26T12:11:40;24.60;44.30
77985;DHT22;67177;47.240;-1.546;2023-06-26T12:14:07;24.60;43.80
77985;DHT22;67177;47.240;-1.546;2023-06-26T12:16:33;24.60;43.70
77985;DHT22;67177;47.240;-1.546;2023-06-26T12:19:01;24.60;43.90
77985;DHT22;67177;47.240;-1.546;2023-06-26T12:21:33;24.60;44.10
77985;DHT22;67177;47.240;-1.546;2023-06-26T12:24:00;24.50;44.00
77985;DHT22;67177;47.240;-1.546;2023-06-26T12:26:27;24.40;43.80
77985;DHT22;67177;47.240;-1.546;2023-06-26T12:28:53;24.30;43.60
77985;DHT22;67177;47.240;-1.546;2023-06-26T12:31:21;24.20;43.30
77985;DHT22;67177;47.240;-1.546;2023-06-26T12:33:47;24.10;43.20
77985;DHT22;67177;47.240;-1.546;2023-06-26T12:36:13;24.10;43.30
77985;DHT22;67177;47.240;-1.546;2023-06-26T12:38:42;24.10;43.50
77985;DHT22;67177;47.240;-1.546;2023-06-26T12:41:13;24.20;43.50
77985;DHT22;67177;47.240;-1.546;2023-06-26T12:43:40;24.20;43.60
77985;DHT22;67177;47.240;-1.546;2023-06-26T12:46:06;24.20;43.70
77985;DHT22;67177;47.240;-1.546;2023-06-26T12:48:44;24.30;43.90
77985;DHT22;67177;47.240;-1.546;2023-06-26T12:51:15;24.30;43.80
77985;DHT22;67177;47.240;-1.546;2023-06-26T12:53:41;24.40;43.80
77985;DHT22;67177;47.240;-1.546;2023-06-26T12:56:07;24.40;44.00
77985;DHT22;67177;47.240;-1.546;2023-06-26T12:58:36;24.40;43.50
77985;DHT22;67177;47.240;-1.546;2023-06-26T13:01:04;24.50;43.30
77985;DHT22;67177;47.240;-1.546;2023-06-26T13:03:30;24.50;43.00
77985;DHT22;67177;47.240;-1.546;2023-06-26T13:05:55;24.60;42.70
77985;DHT22;67177;47.240;-1.546;2023-06-26T13:08:21;24.70;42.90
77985;DHT22;67177;47.240;-1.546;2023-06-26T13:10:47;24.80;42.90
77985;DHT22;67177;47.240;-1.546;2023-06-26T13:13:13;24.80;42.90
77985;DHT22;67177;47.240;-1.546;2023-06-26T13:15:38;24.80;43.10
77985;DHT22;67177;47.240;-1.546;2023-06-26T13:18:04;24.90;43.10
77985;DHT22;67177;47.240;-1.546;2023-06-26T13:20:30;24.90;43.00
77985;DHT22;67177;47.240;-1.546;2023-06-26T13:22:55;25.00;43.00
77985;DHT22;67177;47.240;-1.546;2023-06-26T13:25:22;25.00;42.10
77985;DHT22;67177;47.240;-1.546;2023-06-26T13:27:48;24.90;42.10
77985;DHT22;67177;47.240;-1.546;2023-06-26T13:30:15;24.90;42.20
77985;DHT22;67177;47.240;-1.546;2023-06-26T13:32:42;24.80;42.60
77985;DHT22;67177;47.240;-1.546;2023-06-26T13:35:09;24.80;42.60
77985;DHT22;67177;47.240;-1.546;2023-06-26T13:37:35;24.80;42.70
77985;DHT22;67177;47.240;-1.546;2023-06-26T13:40:02;24.90;42.90
77985;DHT22;67177;47.240;-1.546;2023-06-26T13:42:29;25.10;43.00
77985;DHT22;67177;47.240;-1.546;2023-06-26T13:44:54;25.30;42.80
77985;DHT22;67177;47.240;-1.546;2023-06-26T13:47:20;25.30;42.60
77985;DHT22;67177;47.240;-1.546;2023-06-26T13:49:46;25.40;42.50
77985;DHT22;67177;47.240;-1.546;2023-06-26T13:52:12;25.30;42.40
77985;DHT22;67177;47.240;-1.546;2023-06-26T13:54:38;25.30;42.10
77985;DHT22;67177;47.240;-1.546;2023-06-26T13:57:06;25.20;42.10
77985;DHT22;67177;47.240;-1.546;2023-06-26T13:59:32;25.20;42.10
77985;DHT22;67177;47.240;-1.546;2023-06-26T14:01:58;25.10;42.30
77985;DHT22;67177;47.240;-1.546;2023-06-26T14:04:24;25.10;42.20
77985;DHT22;67177;47.240;-1.546;2023-06-26T14:06:50;25.10;42.30
77985;DHT22;67177;47.240;-1.546;2023-06-26T14:09:16;25.20;42.10
77985;DHT22;67177;47.240;-1.546;2023-06-26T14:11:43;25.10;41.90
77985;DHT22;67177;47.240;-1.546;2023-06-26T14:14:08;25.10;41.80
77985;DHT22;67177;47.240;-1.546;2023-06-26T14:16:34;25.10;41.80
77985;DHT22;67177;47.240;-1.546;2023-06-26T14:19:00;25.00;41.80
77985;DHT22;67177;47.240;-1.546;2023-06-26T14:21:25;25.10;42.00
77985;DHT22;67177;47.240;-1.546;2023-06-26T14:23:53;25.10;41.80
77985;DHT22;67177;47.240;-1.546;2023-06-26T14:26:19;25.10;41.60
77985;DHT22;67177;47.240;-1.546;2023-06-26T14:28:44;25.10;41.50
77985;DHT22;67177;47.240;-1.546;2023-06-26T14:31:10;25.00;41.70
77985;DHT22;67177;47.240;-1.546;2023-06-26T14:33:36;25.00;41.60
77985;DHT22;67177;47.240;-1.546;2023-06-26T14:36:02;25.00;41.60
77985;DHT22;67177;47.240;-1.546;2023-06-26T14:38:28;25.00;41.80
77985;DHT22;67177;47.240;-1.546;2023-06-26T14:40:53;25.10;42.00
77985;DHT22;67177;47.240;-1.546;2023-06-26T14:43:19;25.20;42.10
77985;DHT22;67177;47.240;-1.546;2023-06-26T14:45:44;25.30;41.80
77985;DHT22;67177;47.240;-1.546;2023-06-26T14:48:10;25.40;41.70
77985;DHT22;67177;47.240;-1.546;2023-06-26T14:50:36;25.40;41.60
77985;DHT22;67177;47.240;-1.546;2023-06-26T14:53:01;25.40;41.40
77985;DHT22;67177;47.240;-1.546;2023-06-26T14:55:27;25.40;41.70
77985;DHT22;67177;47.240;-1.546;2023-06-26T14:57:53;25.50;41.90
77985;DHT22;67177;47.240;-1.546;2023-06-26T15:00:19;25.60;42.00
77985;DHT22;67177;47.240;-1.546;2023-06-26T15:02:45;25.70;42.10
77985;DHT22;67177;47.240;-1.546;2023-06-26T15:05:10;25.80;41.80
77985;DHT22;67177;47.240;-1.546;2023-06-26T15:07:36;25.90;41.80
77985;DHT22;67177;47.240;-1.546;2023-06-26T15:10:02;26.00;41.50
77985;DHT22;67177;47.240;-1.546;2023-06-26T15:12:27;26.10;41.40
77985;DHT22;67177;47.240;-1.546;2023-06-26T15:14:53;26.00;41.00
77985;DHT22;67177;47.240;-1.546;2023-06-26T15:17:19;26.00;41.20
77985;DHT22;67177;47.240;-1.546;2023-06-26T15:19:44;26.00;41.20
77985;DHT22;67177;47.240;-1.546;2023-06-26T15:22:10;25.90;41.40
77985;DHT22;67177;47.240;-1.546;2023-06-26T15:24:36;25.90;41.40
77985;DHT22;67177;47.240;-1.546;2023-06-26T15:27:01;25.80;41.10
77985;DHT22;67177;47.240;-1.546;2023-06-26T15:29:28;25.70;41.20
77985;DHT22;67177;47.240;-1.546;2023-06-26T15:31:53;25.70;41.40